sensor_id;sensor_type;location;lat;lon;timestamp;temperature;humidity
21844;DHT22;11084;52.482;9.108;2022-11-15T00:02:27;5.90;99.90
21844;DHT22;11084;52.482;9.108;2022-11-15T00:05:11;5.90;99.90
21844;DHT22;11084;52.482;9.108;2022-11-15T00:07:57;5.90;99.90
21844;DHT22;11084;52.482;9.108;2022-11-15T00:10:41;6.20;99.90
21844;DHT22;11084;52.482;9.108;2022-11-15T00:13:27;5.90;99.90
21844;DHT22;11084;52.482;9.108;2022-11-15T00:18:56;5.90;99.90
21844;DHT22;11084;52.482;9.108;2022-11-15T00:21:44;5.90;99.90
21844;DHT22;11084;52.482;9.108;2022-11-15T00:24:28;5.90;99.90
21844;DHT22;11084;52.482;9.108;2022-11-15T00:27:13;5.90;99.90
21844;DHT22;11084;52.482;9.108;2022-11-15T00:29:57;5.90;99.90
21844;DHT22;11084;52.482;9.108;2022-11-15T00:32:42;5.90;99.90
21844;DHT22;11084;52.482;9.108;2022-11-15T00:35:27;6.00;99.90
21844;DHT22;11084;52.482;9.108;2022-11-15T00:38:12;6.00;99.90
21844;DHT22;11084;52.482;9.108;2022-11-15T00:40:58;6.10;99.90
21844;DHT22;11084;52.482;9.108;2022-11-15T00:43:42;6.10;99.90
21844;DHT22;11084;52.482;9.108;2022-11-15T00:46:28;6.10;99.90
21844;DHT22;11084;52.482;9.108;2022-11-15T00:49:13;6.30;99.90
21844;DHT22;11084;52.482;9.108;2022-11-15T00:51:58;6.30;99.90
21844;DHT22;11084;52.482;9.108;2022-11-15T00:54:42;6.40;99.90
21844;DHT22;11084;52.482;9.108;2022-11-15T00:57:27;6.40;99.90
21844;DHT22;11084;52.482;9.108;2022-11-15T01:00:12;6.40;99.90
21844;DHT22;11084;52.482;9.108;2022-11-15T01:02:57;6.60;99.90
21844;DHT22;11084;52.482;9.108;2022-11-15T01:05:42;6.60;99.90
21844;DHT22;11084;52.482;9.108;2022-11-15T01:08:27;6.80;99.90
21844;DHT22;11084;52.482;9.108;2022-11-15T01:11:12;6.80;99.90
21844;DHT22;11084;52.482;9.108;2022-11-15T01:13:58;7.00;99.90
21844;DHT22;11084;52.482;9.108;2022-11-15T01:16:44;7.10;99.90
21844;DHT22;11084;52.482;9.108;2022-11-15T01:19:29;7.10;99.90
21844;DHT22;11084;52.482;9.108;2022-11-15T01:22:14;7.30;99.90
21844;DHT22;11084;52.482;9.108;2022-11-15T01:24:58;7.30;99.90
21844;DHT22;11084;52.482;9.108;2022-11-15T01:27:43;7.40;99.90
21844;DHT22;11084;52.482;9.108;2022-11-15T01:30:28;7.40;99.90
21844;DHT22;11084;52.482;9.108;2022-11-15T01:35:57;7.60;99.90
21844;DHT22;11084;52.482;9.108;2022-11-15T01:38:42;7.70;99.90
21844;DHT22;11084;52.482;9.108;2022-11-15T01:41:30;7.70;99.90
21844;DHT22;11084;52.482;9.108;2022-11-15T01:47:23;7.80;99.90
21844;DHT22;11084;52.482;9.108;2022-11-15T01:50:17;8.20;99.90
21844;DHT22;11084;52.482;9.108;2022-11-15T01:53:05;8.00;99.90
21844;DHT22;11084;52.482;9.108;2022-11-15T01:55:51;8.00;99.90
21844;DHT22;11084;52.482;9.108;2022-11-15T01:58:37;8.00;99.90
21844;DHT22;11084;52.482;9.108;2022-11-15T02:01:22;8.00;99.90
21844;DHT22;11084;52.482;9.108;2022-11-15T02:04:13;8.10;99.90
21844;DHT22;11084;52.482;9.108;2022-11-15T02:07:02;8.10;99.90
21844;DHT22;11084;52.482;9.108;2022-11-15T02:09:48;8.10;99.90
21844;DHT22;11084;52.482;9.108;2022-11-15T02:12:33;8.20;99.90
21844;DHT22;11084;52.482;9.108;2022-11-15T02:15:18;8.20;99.90
21844;DHT22;11084;52.482;9.108;2022-11-15T02:21:09;8.20;99.90
21844;DHT22;11084;52.482;9.108;2022-11-15T02:34:28;8.30;99.90
21844;DHT22;11084;52.482;9.108;2022-11-15T02:37:55;8.40;99.90
21844;DHT22;11084;52.482;9.108;2022-11-15T02:41:11;8.40;99.90
21844;DHT22;11084;52.482;9.108;2022-11-15T02:44:30;8.50;99.90
21844;DHT22;11084;52.482;9.108;2022-11-15T02:47:17;8.50;99.90
21844;DHT22;11084;52.482;9.108;2022-11-15T02:50:12;8.60;99.90
21844;DHT22;11084;52.482;9.108;2022-11-15T02:52:59;8.60;99.90
21844;DHT22;11084;52.482;9.108;2022-11-15T02:55:47;8.70;99.90
21844;DHT22;11084;52.482;9.108;2022-11-15T03:15:31;9.20;99.90
21844;DHT22;11084;52.482;9.108;2022-11-15T03:18:31;9.20;99.90
21844;DHT22;11084;52.482;9.108;2022-11-15T03:21:19;9.40;99.90
21844;DHT22;11084;52.482;9.108;2022-11-15T03:24:07;9.40;99.90
21844;DHT22;11084;52.482;9.108;2022-11-15T03:26:55;9.50;99.90
21844;DHT22;11084;52.482;9.108;2022-11-15T03:29:45;9.60;99.90
21844;DHT22;11084;52.482;9.108;2022-11-15T03:32:34;9.60;99.90
21844;DHT22;11084;52.482;9.108;2022-11-15T03:35:24;9.70;99.90
21844;DHT22;11084;52.482;9.108;2022-11-15T03:38:25;9.70;99.90
21844;DHT22;11084;52.482;9.108;2022-11-15T03:41:21;9.90;99.90
21844;DHT22;11084;52.482;9.108;2022-11-15T03:44:36;9.90;99.90
21844;DHT22;11084;52.482;9.108;2022-11-15T03:47:38;9.90;99.90
21844;DHT22;11084;52.482;9.108;2022-11-15T03:50:26;10.00;99.90
21844;DHT22;11084;52.482;9.108;2022-11-15T03:53:12;10.10;99.90
21844;DHT22;11084;52.482;9.108;2022-11-15T03:55:56;10.10;99.90
21844;DHT22;11084;52.482;9.108;2022-11-15T03:58:41;10.20;99.90
21844;DHT22;11084;52.482;9.108;2022-11-15T04:01:25;10.30;99.90
21844;DHT22;11084;52.482;9.108;2022-11-15T04:04:11;10.30;99.90
21844;DHT22;11084;52.482;9.108;2022-11-15T04:06:56;10.40;99.90
21844;DHT22;11084;52.482;9.108;2022-11-15T04:09:40;10.40;99.90
21844;DHT22;11084;52.482;9.108;2022-11-15T04:12:44;10.40;99.90
21844;DHT22;11084;52.482;9.108;2022-11-15T04:15:31;10.40;99.90
21844;DHT22;11084;52.482;9.108;2022-11-15T04:18:16;10.50;99.90
21844;DHT22;11084;52.482;9.108;2022-11-15T04:21:00;10.50;99.90
21844;DHT22;11084;52.482;9.108;2022-11-15T04:24:04;10.60;99.90
21844;DHT22;11084;52.482;9.108;2022-11-15T04:26:49;10.70;99.90
21844;DHT22;11084;52.482;9.108;2022-11-15T04:29:34;10.70;99.90
21844;DHT22;11084;52.482;9.108;2022-11-15T04:32:21;10.70;99.90
21844;DHT22;11084;52.482;9.108;2022-11-15T04:35:06;10.80;99.90
21844;DHT22;11084;52.482;9.108;2022-11-15T04:37:51;10.80;99.90
21844;DHT22;11084;52.482;9.108;2022-11-15T04:40:37;10.80;99.90
21844;DHT22;11084;52.482;9.108;2022-11-15T04:43:22;10.90;99.90
21844;DHT22;11084;52.482;9.108;2022-11-15T04:46:06;10.90;99.90
21844;DHT22;11084;52.482;9.108;2022-11-15T04:48:52;10.90;99.90
21844;DHT22;11084;52.482;9.108;2022-11-15T04:54:21;11.00;99.90
21844;DHT22;11084;52.482;9.108;2022-11-15T04:57:06;11.00;99.90
21844;DHT22;11084;52.482;9.108;2022-11-15T04:59:51;11.00;99.90
21844;DHT22;11084;52.482;9.108;2022-11-15T05:02:37;11.10;99.90
21844;DHT22;11084;52.482;9.108;2022-11-15T05:05:40;11.10;99.90
21844;DHT22;11084;52.482;9.108;2022-11-15T05:08:25;11.10;99.90
21844;DHT22;11084;52.482;9.108;2022-11-15T05:11:09;11.10;99.90
21844;DHT22;11084;52.482;9.108;2022-11-15T05:13:54;11.20;99.90
21844;DHT22;11084;52.482;9.108;2022-11-15T05:19:24;11.20;99.90
21844;DHT22;11084;52.482;9.108;2022-11-15T05:22:08;11.20;99.90
21844;DHT22;11084;52.482;9.108;2022-11-15T05:24:53;11.20;99.90
21844;DHT22;11084;52.482;9.108;2022-11-15T05:27:38;11.30;99.90
21844;DHT22;11084;52.482;9.108;2022-11-15T05:30:22;11.30;99.90
21844;DHT22;11084;52.482;9.108;2022-11-15T05:33:07;11.30;99.90
21844;DHT22;11084;52.482;9.108;2022-11-15T05:35:56;11.30;99.90
21844;DHT22;11084;52.482;9.108;2022-11-15T05:38:44;11.30;99.90
21844;DHT22;11084;52.482;9.108;2022-11-15T05:42:00;11.30;99.90
21844;DHT22;11084;52.482;9.108;2022-11-15T05:44:56;11.30;99.90
21844;DHT22;11084;52.482;9.108;2022-11-15T05:47:42;11.30;99.90
21844;DHT22;11084;52.482;9.108;2022-11-15T05:50:27;11.10;99.90
21844;DHT22;11084;52.482;9.108;2022-11-15T05:53:14;11.30;99.90
21844;DHT22;11084;52.482;9.108;2022-11-15T05:55:59;11.20;99.90
21844;DHT22;11084;52.482;9.108;2022-11-15T05:58:44;11.30;99.90
21844;DHT22;11084;52.482;9.108;2022-11-15T06:01:29;11.20;99.90
21844;DHT22;11084;52.482;9.108;2022-11-15T06:04:15;11.30;99.90
21844;DHT22;11084;52.482;9.108;2022-11-15T06:06:59;11.30;99.90
21844;DHT22;11084;52.482;9.108;2022-11-15T06:09:44;11.20;99.90
21844;DHT22;11084;52.482;9.108;2022-11-15T06:12:28;11.30;99.90
21844;DHT22;11084;52.482;9.108;2022-11-15T06:15:13;11.30;99.90
21844;DHT22;11084;52.482;9.108;2022-11-15T06:17:58;11.30;99.90
21844;DHT22;11084;52.482;9.108;2022-11-15T06:20:43;11.30;99.90
21844;DHT22;11084;52.482;9.108;2022-11-15T06:23:28;11.30;99.90
21844;DHT22;11084;52.482;9.108;2022-11-15T06:29:03;11.30;99.90
21844;DHT22;11084;52.482;9.108;2022-11-15T06:31:48;11.30;99.90
21844;DHT22;11084;52.482;9.108;2022-11-15T06:37:20;11.30;99.90
21844;DHT22;11084;52.482;9.108;2022-11-15T06:40:05;11.40;99.90
21844;DHT22;11084;52.482;9.108;2022-11-15T06:42:57;11.40;99.90
21844;DHT22;11084;52.482;9.108;2022-11-15T06:45:43;11.40;99.90
21844;DHT22;11084;52.482;9.108;2022-11-15T06:48:29;11.40;99.90
21844;DHT22;11084;52.482;9.108;2022-11-15T06:51:14;11.40;99.90
21844;DHT22;11084;52.482;9.108;2022-11-15T06:53:59;11.40;99.90
21844;DHT22;11084;52.482;9.108;2022-11-15T06:56:43;11.50;99.90
21844;DHT22;11084;52.482;9.108;2022-11-15T06:59:28;11.50;99.90
21844;DHT22;11084;52.482;9.108;2022-11-15T07:02:13;11.50;99.90
21844;DHT22;11084;52.482;9.108;2022-11-15T07:07:51;12.00;99.90
21844;DHT22;11084;52.482;9.108;2022-11-15T07:10:37;12.80;99.90
21844;DHT22;11084;52.482;9.108;2022-11-15T07:13:25;13.20;99.90
21844;DHT22;11084;52.482;9.108;2022-11-15T07:16:10;13.20;99.90
21844;DHT22;11084;52.482;9.108;2022-11-15T07:18:55;13.00;99.90
21844;DHT22;11084;52.482;9.108;2022-11-15T07:21:39;13.00;99.90
21844;DHT22;11084;52.482;9.108;2022-11-15T07:24:24;13.90;99.90
21844;DHT22;11084;52.482;9.108;2022-11-15T07:27:09;13.90;99.90
21844;DHT22;11084;52.482;9.108;2022-11-15T07:32:38;13.60;99.90
21844;DHT22;11084;52.482;9.108;2022-11-15T07:35:24;13.60;99.90
21844;DHT22;11084;52.482;9.108;2022-11-15T07:38:09;13.80;99.90
21844;DHT22;11084;52.482;9.108;2022-11-15T07:40:59;13.90;99.90
21844;DHT22;11084;52.482;9.108;2022-11-15T07:43:44;15.00;99.90
21844;DHT22;11084;52.482;9.108;2022-11-15T07:46:29;14.90;99.90
21844;DHT22;11084;52.482;9.108;2022-11-15T07:49:14;14.50;99.90
21844;DHT22;11084;52.482;9.108;2022-11-15T07:51:58;14.10;99.90
21844;DHT22;11084;52.482;9.108;2022-11-15T07:54:43;14.10;99.90
21844;DHT22;11084;52.482;9.108;2022-11-15T07:57:29;13.60;99.90
21844;DHT22;11084;52.482;9.108;2022-11-15T08:00:14;13.50;99.90
21844;DHT22;11084;52.482;9.108;2022-11-15T08:03:13;13.50;99.90
21844;DHT22;11084;52.482;9.108;2022-11-15T08:05:59;13.50;99.90
21844;DHT22;11084;52.482;9.108;2022-11-15T08:08:43;13.40;99.90
21844;DHT22;11084;52.482;9.108;2022-11-15T08:11:28;13.40;99.90
21844;DHT22;11084;52.482;9.108;2022-11-15T08:14:13;13.20;99.90
21844;DHT22;11084;52.482;9.108;2022-11-15T08:16:57;13.30;99.90
21844;DHT22;11084;52.482;9.108;2022-11-15T08:19:42;13.20;99.90
21844;DHT22;11084;52.482;9.108;2022-11-15T08:22:26;13.20;99.90
21844;DHT22;11084;52.482;9.108;2022-11-15T08:25:11;13.20;99.90
21844;DHT22;11084;52.482;9.108;2022-11-15T08:27:58;13.20;99.90
21844;DHT22;11084;52.482;9.108;2022-11-15T08:30:46;13.20;99.90
21844;DHT22;11084;52.482;9.108;2022-11-15T08:33:31;13.20;99.90
21844;DHT22;11084;52.482;9.108;2022-11-15T08:36:17;13.20;99.90
21844;DHT22;11084;52.482;9.108;2022-11-15T08:39:01;13.10;99.90
21844;DHT22;11084;52.482;9.108;2022-11-15T08:41:46;13.20;99.90
21844;DHT22;11084;52.482;9.108;2022-11-15T08:44:31;13.20;99.90
21844;DHT22;11084;52.482;9.108;2022-11-15T08:47:16;11.80;99.90
21844;DHT22;11084;52.482;9.108;2022-11-15T08:50:01;13.30;99.90
21844;DHT22;11084;52.482;9.108;2022-11-15T08:52:46;13.20;99.90
21844;DHT22;11084;52.482;9.108;2022-11-15T08:55:32;13.20;99.90
21844;DHT22;11084;52.482;9.108;2022-11-15T08:58:16;13.30;99.90
21844;DHT22;11084;52.482;9.108;2022-11-15T09:01:01;13.30;99.90
21844;DHT22;11084;52.482;9.108;2022-11-15T09:03:49;13.40;99.90
21844;DHT22;11084;52.482;9.108;2022-11-15T09:06:34;13.40;99.90
21844;DHT22;11084;52.482;9.108;2022-11-15T09:12:05;13.40;99.90
21844;DHT22;11084;52.482;9.108;2022-11-15T09:14:50;13.50;99.90
21844;DHT22;11084;52.482;9.108;2022-11-15T09:17:34;13.70;99.90
21844;DHT22;11084;52.482;9.108;2022-11-15T09:20:19;13.80;99.90
21844;DHT22;11084;52.482;9.108;2022-11-15T09:23:05;14.10;99.90
21844;DHT22;11084;52.482;9.108;2022-11-15T09:25:50;14.10;99.90
21844;DHT22;11084;52.482;9.108;2022-11-15T09:28:36;14.20;99.90
21844;DHT22;11084;52.482;9.108;2022-11-15T09:31:20;14.20;99.90
21844;DHT22;11084;52.482;9.108;2022-11-15T09:34:05;14.30;99.90
21844;DHT22;11084;52.482;9.108;2022-11-15T09:36:49;14.20;99.90
21844;DHT22;11084;52.482;9.108;2022-11-15T09:39:34;14.20;99.90
21844;DHT22;11084;52.482;9.108;2022-11-15T09:42:23;14.20;99.90
21844;DHT22;11084;52.482;9.108;2022-11-15T09:54:01;14.40;99.90
21844;DHT22;11084;52.482;9.108;2022-11-15T09:56:32;14.40;99.90
21844;DHT22;11084;52.482;9.108;2022-11-15T10:04:58;14.70;99.90
21844;DHT22;11084;52.482;9.108;2022-11-15T10:15:22;14.90;99.90
21844;DHT22;11084;52.482;9.108;2022-11-15T10:18:08;15.00;99.90
21844;DHT22;11084;52.482;9.108;2022-11-15T10:23:41;15.10;99.90
21844;DHT22;11084;52.482;9.108;2022-11-15T10:26:10;15.20;99.90
21844;DHT22;11084;52.482;9.108;2022-11-15T10:28:39;15.20;99.90
21844;DHT22;11084;52.482;9.108;2022-11-15T10:31:24;15.20;99.90
21844;DHT22;11084;52.482;9.108;2022-11-15T10:34:20;15.30;99.90
21844;DHT22;11084;52.482;9.108;2022-11-15T10:36:58;15.30;99.90
21844;DHT22;11084;52.482;9.108;2022-11-15T10:39:26;15.30;99.90
21844;DHT22;11084;52.482;9.108;2022-11-15T10:41:53;15.30;99.90
21844;DHT22;11084;52.482;9.108;2022-11-15T10:44:29;15.30;99.90
21844;DHT22;11084;52.482;9.108;2022-11-15T10:49:26;15.30;99.90
21844;DHT22;11084;52.482;9.108;2022-11-15T10:55:36;15.40;99.90
21844;DHT22;11084;52.482;9.108;2022-11-15T10:57:38;15.40;99.90
21844;DHT22;11084;52.482;9.108;2022-11-15T11:00:06;15.40;99.90
21844;DHT22;11084;52.482;9.108;2022-11-15T11:03:04;15.50;99.90
21844;DHT22;11084;52.482;9.108;2022-11-15T11:05:37;15.40;99.90
21844;DHT22;11084;52.482;9.108;2022-11-15T11:10:33;15.50;99.90
21844;DHT22;11084;52.482;9.108;2022-11-15T11:13:13;15.50;99.90
21844;DHT22;11084;52.482;9.108;2022-11-15T11:16:22;15.50;99.90
21844;DHT22;11084;52.482;9.108;2022-11-15T11:19:10;15.50;99.90
21844;DHT22;11084;52.482;9.108;2022-11-15T11:36:44;15.50;99.90
21844;DHT22;11084;52.482;9.108;2022-11-15T11:48:30;15.50;99.90
21844;DHT22;11084;52.482;9.108;2022-11-15T11:51:28;15.50;99.90
21844;DHT22;11084;52.482;9.108;2022-11-15T11:54:22;15.50;99.90
21844;DHT22;11084;52.482;9.108;2022-11-15T11:56:52;15.50;99.90
21844;DHT22;11084;52.482;9.108;2022-11-15T11:59:33;15.50;99.90
21844;DHT22;11084;52.482;9.108;2022-11-15T12:05:26;15.50;99.90
21844;DHT22;11084;52.482;9.108;2022-11-15T12:08:52;15.50;99.90
21844;DHT22;11084;52.482;9.108;2022-11-15T12:16:57;15.60;99.90
21844;DHT22;11084;52.482;9.108;2022-11-15T12:22:16;15.60;99.90
21844;DHT22;11084;52.482;9.108;2022-11-15T12:25:01;15.60;99.90
21844;DHT22;11084;52.482;9.108;2022-11-15T12:27:44;15.60;99.90
21844;DHT22;11084;52.482;9.108;2022-11-15T12:30:17;15.60;99.90
21844;DHT22;11084;52.482;9.108;2022-11-15T12:32:57;15.60;99.90
21844;DHT22;11084;52.482;9.108;2022-11-15T12:35:34;15.60;99.90
21844;DHT22;11084;52.482;9.108;2022-11-15T12:38:01;15.60;99.90
21844;DHT22;11084;52.482;9.108;2022-11-15T12:45:37;15.50;99.90
21844;DHT22;11084;52.482;9.108;2022-11-15T12:58:59;15.40;99.90
21844;DHT22;11084;52.482;9.108;2022-11-15T13:06:50;15.30;99.90
21844;DHT22;11084;52.482;9.108;2022-11-15T13:15:01;15.20;99.90
21844;DHT22;11084;52.482;9.108;2022-11-15T13:17:52;15.10;99.90
21844;DHT22;11084;52.482;9.108;2022-11-15T13:20:23;15.10;99.90
21844;DHT22;11084;52.482;9.108;2022-11-15T13:23:00;15.10;99.90
21844;DHT22;11084;52.482;9.108;2022-11-15T13:31:03;15.00;99.90
21844;DHT22;11084;52.482;9.108;2022-11-15T13:33:44;14.90;99.90
21844;DHT22;11084;52.482;9.108;2022-11-15T13:36:20;14.90;99.90
21844;DHT22;11084;52.482;9.108;2022-11-15T13:39:00;14.90;99.90
21844;DHT22;11084;52.482;9.108;2022-11-15T13:41:33;14.70;99.90
21844;DHT22;11084;52.482;9.108;2022-11-15T13:44:01;14.70;99.90
21844;DHT22;11084;52.482;9.108;2022-11-15T13:46:30;14.70;99.90
21844;DHT22;11084;52.482;9.108;2022-11-15T13:49:08;14.60;99.90
21844;DHT22;11084;52.482;9.108;2022-11-15T13:51:50;14.60;99.90
21844;DHT22;11084;52.482;9.108;2022-11-15T13:54:30;14.60;99.90
21844;DHT22;11084;52.482;9.108;2022-11-15T13:56:57;14.50;99.90
21844;DHT22;11084;52.482;9.108;2022-11-15T13:59:29;14.50;99.90
21844;DHT22;11084;52.482;9.108;2022-11-15T14:02:01;14.40;99.90
21844;DHT22;11084;52.482;9.108;2022-11-15T14:04:30;14.30;99.90
21844;DHT22;11084;52.482;9.108;2022-11-15T14:07:00;14.30;99.90
21844;DHT22;11084;52.482;9.108;2022-11-15T14:12:34;14.10;99.90
21844;DHT22;11084;52.482;9.108;2022-11-15T14:15:31;14.00;99.90
21844;DHT22;11084;52.482;9.108;2022-11-15T14:17:59;14.00;99.90
21844;DHT22;11084;52.482;9.108;2022-11-15T14:20:34;14.00;99.90
21844;DHT22;11084;52.482;9.108;2022-11-15T14:25:54;13.80;99.90
21844;DHT22;11084;52.482;9.108;2022-11-15T14:30:51;13.70;99.90
21844;DHT22;11084;52.482;9.108;2022-11-15T14:33:28;13.70;99.90
21844;DHT22;11084;52.482;9.108;2022-11-15T14:36:20;13.70;99.90
21844;DHT22;11084;52.482;9.108;2022-11-15T14:38:47;13.60;99.90
21844;DHT22;11084;52.482;9.108;2022-11-15T14:41:25;13.60;99.90
21844;DHT22;11084;52.482;9.108;2022-11-15T14:43:58;13.60;99.90
21844;DHT22;11084;52.482;9.108;2022-11-15T14:46:24;13.50;99.90
21844;DHT22;11084;52.482;9.108;2022-11-15T14:48:49;13.50;99.90
21844;DHT22;11084;52.482;9.108;2022-11-15T14:51:17;13.50;99.90
21844;DHT22;11084;52.482;9.108;2022-11-15T14:53:44;13.40;99.90
21844;DHT22;11084;52.482;9.108;2022-11-15T14:58:37;13.40;99.90
21844;DHT22;11084;52.482;9.108;2022-11-15T15:01:19;13.30;99.90
21844;DHT22;11084;52.482;9.108;2022-11-15T15:03:47;13.30;99.90
21844;DHT22;11084;52.482;9.108;2022-11-15T15:06:13;13.20;99.90
21844;DHT22;11084;52.482;9.108;2022-11-15T15:08:40;13.20;99.90
21844;DHT22;11084;52.482;9.108;2022-11-15T15:11:23;13.10;99.90
21844;DHT22;11084;52.482;9.108;2022-11-15T15:13:51;13.10;99.90
21844;DHT22;11084;52.482;9.108;2022-11-15T15:18:44;12.90;99.90
21844;DHT22;11084;52.482;9.108;2022-11-15T15:21:26;12.90;99.90
21844;DHT22;11084;52.482;9.108;2022-11-15T15:23:53;12.80;99.90
21844;DHT22;11084;52.482;9.108;2022-11-15T15:26:20;12.70;99.90
21844;DHT22;11084;52.482;9.108;2022-11-15T15:28:47;12.60;99.90
21844;DHT22;11084;52.482;9.108;2022-11-15T15:31:14;12.60;99.90
21844;DHT22;11084;52.482;9.108;2022-11-15T15:33:40;12.60;99.90
21844;DHT22;11084;52.482;9.108;2022-11-15T15:36:16;12.50;99.90
21844;DHT22;11084;52.482;9.108;2022-11-15T15:38:43;12.50;99.90
21844;DHT22;11084;52.482;9.108;2022-11-15T15:41:14;12.40;99.90
21844;DHT22;11084;52.482;9.108;2022-11-15T15:43:41;12.40;99.90
21844;DHT22;11084;52.482;9.108;2022-11-15T15:46:12;12.30;99.90
21844;DHT22;11084;52.482;9.108;2022-11-15T15:48:41;12.20;99.90
21844;DHT22;11084;52.482;9.108;2022-11-15T15:51:08;12.20;99.90
21844;DHT22;11084;52.482;9.108;2022-11-15T15:53:34;12.10;99.90
21844;DHT22;11084;52.482;9.108;2022-11-15T15:56:00;12.00;99.90
21844;DHT22;11084;52.482;9.108;2022-11-15T15:58:26;12.00;99.90
21844;DHT22;11084;52.482;9.108;2022-11-15T16:00:52;12.00;99.90
21844;DHT22;11084;52.482;9.108;2022-11-15T16:03:18;12.00;99.90
21844;DHT22;11084;52.482;9.108;2022-11-15T16:08:19;11.90;99.90
21844;DHT22;11084;52.482;9.108;2022-11-15T16:10:48;11.90;99.90
21844;DHT22;11084;52.482;9.108;2022-11-15T16:13:14;11.90;99.90
21844;DHT22;11084;52.482;9.108;2022-11-15T16:15:42;11.90;99.90
21844;DHT22;11084;52.482;9.108;2022-11-15T16:18:19;11.90;99.90
21844;DHT22;11084;52.482;9.108;2022-11-15T16:20:48;11.90;99.90
21844;DHT22;11084;52.482;9.108;2022-11-15T16:23:22;11.90;99.90
21844;DHT22;11084;52.482;9.108;2022-11-15T16:43:11;11.60;99.90
21844;DHT22;11084;52.482;9.108;2022-11-15T16:45:37;11.50;99.90
21844;DHT22;11084;52.482;9.108;2022-11-15T16:48:03;11.40;99.90
21844;DHT22;11084;52.482;9.108;2022-11-15T16:50:34;11.40;99.90
21844;DHT22;11084;52.482;9.108;2022-11-15T16:53:06;11.30;99.90
21844;DHT22;11084;52.482;9.108;2022-11-15T16:55:34;11.30;99.90
21844;DHT22;11084;52.482;9.108;2022-11-15T16:58:00;11.20;99.90
21844;DHT22;11084;52.482;9.108;2022-11-15T17:00:27;11.20;99.90
21844;DHT22;11084;52.482;9.108;2022-11-15T17:02:53;11.20;99.90
21844;DHT22;11084;52.482;9.108;2022-11-15T17:05:22;11.10;99.90
21844;DHT22;11084;52.482;9.108;2022-11-15T17:07:50;11.10;99.90
21844;DHT22;11084;52.482;9.108;2022-11-15T17:10:19;11.10;99.90
21844;DHT22;11084;52.482;9.108;2022-11-15T17:15:16;11.00;99.90
21844;DHT22;11084;52.482;9.108;2022-11-15T17:20:15;10.90;99.90
21844;DHT22;11084;52.482;9.108;2022-11-15T17:22:42;11.00;99.90
21844;DHT22;11084;52.482;9.108;2022-11-15T17:25:09;10.90;99.90
21844;DHT22;11084;52.482;9.108;2022-11-15T17:37:21;10.80;99.90
21844;DHT22;11084;52.482;9.108;2022-11-15T17:42:13;10.80;99.90
21844;DHT22;11084;52.482;9.108;2022-11-15T17:44:39;10.80;99.90
21844;DHT22;11084;52.482;9.108;2022-11-15T17:47:05;10.80;99.90
21844;DHT22;11084;52.482;9.108;2022-11-15T17:49:31;10.80;99.90
21844;DHT22;11084;52.482;9.108;2022-11-15T17:54:25;10.90;99.90
21844;DHT22;11084;52.482;9.108;2022-11-15T17:56:51;10.90;99.90
21844;DHT22;11084;52.482;9.108;2022-11-15T18:01:44;11.00;99.90
21844;DHT22;11084;52.482;9.108;2022-11-15T18:06:39;11.10;99.90
21844;DHT22;11084;52.482;9.108;2022-11-15T18:09:06;11.10;99.90
21844;DHT22;11084;52.482;9.108;2022-11-15T18:11:40;11.10;99.90
21844;DHT22;11084;52.482;9.108;2022-11-15T18:14:11;11.10;99.90
21844;DHT22;11084;52.482;9.108;2022-11-15T18:16:39;11.20;99.90
21844;DHT22;11084;52.482;9.108;2022-11-15T18:19:06;11.20;99.90
21844;DHT22;11084;52.482;9.108;2022-11-15T18:21:43;11.20;99.90
21844;DHT22;11084;52.482;9.108;2022-11-15T18:24:23;11.30;99.90
21844;DHT22;11084;52.482;9.108;2022-11-15T18:27:01;11.30;99.90
21844;DHT22;11084;52.482;9.108;2022-11-15T18:29:28;11.30;99.90
21844;DHT22;11084;52.482;9.108;2022-11-15T18:31:54;11.30;99.90
21844;DHT22;11084;52.482;9.108;2022-11-15T18:34:26;11.30;99.90
21844;DHT22;11084;52.482;9.108;2022-11-15T18:36:57;10.40;99.90
21844;DHT22;11084;52.482;9.108;2022-11-15T18:44:17;11.50;99.90
21844;DHT22;11084;52.482;9.108;2022-11-15T18:46:43;11.50;99.90
21844;DHT22;11084;52.482;9.108;2022-11-15T18:49:11;11.50;99.90
21844;DHT22;11084;52.482;9.108;2022-11-15T18:54:12;11.50;99.90
21844;DHT22;11084;52.482;9.108;2022-11-15T18:56:40;15.60;99.90
21844;DHT22;11084;52.482;9.108;2022-11-15T18:59:07;11.50;99.90
21844;DHT22;11084;52.482;9.108;2022-11-15T19:01:35;11.50;99.90
21844;DHT22;11084;52.482;9.108;2022-11-15T19:04:09;11.50;99.90
21844;DHT22;11084;52.482;9.108;2022-11-15T19:06:38;11.50;99.90
21844;DHT22;11084;52.482;9.108;2022-11-15T19:14:09;11.50;99.90
21844;DHT22;11084;52.482;9.108;2022-11-15T19:16:42;11.60;99.90
21844;DHT22;11084;52.482;9.108;2022-11-15T19:21:39;11.50;99.90
21844;DHT22;11084;52.482;9.108;2022-11-15T19:24:06;11.50;99.90
21844;DHT22;11084;52.482;9.108;2022-11-15T19:29:03;11.40;99.90
21844;DHT22;11084;52.482;9.108;2022-11-15T19:31:30;11.40;99.90
21844;DHT22;11084;52.482;9.108;2022-11-15T19:34:01;11.40;99.90
21844;DHT22;11084;52.482;9.108;2022-11-15T19:36:35;11.40;99.90
21844;DHT22;11084;52.482;9.108;2022-11-15T19:39:04;11.40;99.90
21844;DHT22;11084;52.482;9.108;2022-11-15T19:41:33;11.40;99.90
21844;DHT22;11084;52.482;9.108;2022-11-15T19:44:00;11.30;99.90
21844;DHT22;11084;52.482;9.108;2022-11-15T19:46:27;11.30;99.90
21844;DHT22;11084;52.482;9.108;2022-11-15T19:48:53;11.30;99.90
21844;DHT22;11084;52.482;9.108;2022-11-15T19:51:21;11.30;99.90
21844;DHT22;11084;52.482;9.108;2022-11-15T19:53:53;11.40;99.90
21844;DHT22;11084;52.482;9.108;2022-11-15T19:56:21;11.30;99.90
21844;DHT22;11084;52.482;9.108;2022-11-15T19:58:52;11.30;99.90
21844;DHT22;11084;52.482;9.108;2022-11-15T20:03:48;11.30;99.90
21844;DHT22;11084;52.482;9.108;2022-11-15T20:06:17;11.30;99.90
21844;DHT22;11084;52.482;9.108;2022-11-15T20:08:46;11.30;99.90
21844;DHT22;11084;52.482;9.108;2022-11-15T20:11:14;11.40;99.90
21844;DHT22;11084;52.482;9.108;2022-11-15T20:13:41;12.40;99.90
21844;DHT22;11084;52.482;9.108;2022-11-15T20:16:08;11.30;99.90
21844;DHT22;11084;52.482;9.108;2022-11-15T20:18:42;11.30;99.90
21844;DHT22;11084;52.482;9.108;2022-11-15T20:21:09;11.30;99.90
21844;DHT22;11084;52.482;9.108;2022-11-15T20:23:36;11.40;99.90
21844;DHT22;11084;52.482;9.108;2022-11-15T20:26:04;11.40;99.90
21844;DHT22;11084;52.482;9.108;2022-11-15T20:28:30;11.30;99.90
21844;DHT22;11084;52.482;9.108;2022-11-15T20:30:58;11.40;99.90
21844;DHT22;11084;52.482;9.108;2022-11-15T20:33:25;11.40;99.90
21844;DHT22;11084;52.482;9.108;2022-11-15T20:35:52;11.30;99.90
21844;DHT22;11084;52.482;9.108;2022-11-15T20:38:20;11.30;99.90
21844;DHT22;11084;52.482;9.108;2022-11-15T20:40:48;11.30;99.90
21844;DHT22;11084;52.482;9.108;2022-11-15T20:43:17;11.40;99.90
21844;DHT22;11084;52.482;9.108;2022-11-15T20:45:47;11.40;99.90
21844;DHT22;11084;52.482;9.108;2022-11-15T20:48:15;11.40;99.90